EDT,Max TemperatureF,Mean TemperatureF,Min TemperatureF,Max Dew PointF,MeanDew PointF,Min DewpointF,Max Humidity, Mean Humidity, Min Humidity, Max Sea Level PressureIn, Mean Sea Level PressureIn, Min Sea Level PressureIn, Max VisibilityMiles, Mean VisibilityMiles, Min VisibilityMiles, Max Wind SpeedMPH, Mean Wind SpeedMPH, Max Gust SpeedMPH,PrecipitationIn, CloudCover, Events, WindDirDegrees
2012-9-1,92,82,73,78,75,72,100,91,51,30.19,30.14,30.05,10,5,0,7,1,,0.00,5,Fog-Rain,233
2012-9-2,91,82,73,77,73,70,97,81,52,30.08,30.01,29.97,10,7,1,18,5,25,0.36,5,Rain-Thunderstorm,199
2012-9-3,89,81,73,74,73,72,98,86,58,30.04,30.00,29.98,10,10,10,10,3,,0.03,2,Rain-Thunderstorm,165
2012-9-4,89,80,73,76,73,72,97,80,61,30.00,29.97,29.92,10,8,1,21,5,26,0.22,5,Rain-Thunderstorm,194
2012-9-5,90,80,70,75,72,69,100,86,50,29.99,29.94,29.90,10,8,1,14,3,,0.34,4,Rain-Thunderstorm,314
2012-9-6,91,80,71,75,72,67,100,83,49,30.01,29.96,29.91,10,9,6,10,2,,0.01,3,,229
2012-9-7,91,82,73,76,73,71,97,81,53,29.97,29.91,29.87,10,10,10,9,3,,0.04,2,Rain,214
2012-9-8,87,80,73,77,74,72,100,90,66,29.90,29.84,29.80,10,8,2,17,6,23,0.47,6,Rain-Thunderstorm,198
2012-9-9,86,78,69,75,72,68,100,89,54,29.98,29.85,29.79,10,10,7,9,5,,0.00,6,,286
2012-9-10,84,72,62,68,64,54,100,85,36,30.12,30.02,29.97,10,6,2,14,2,17,0.00,0,,26
2012-9-11,83,72,62,63,61,57,95,71,43,30.24,30.19,30.12,10,9,2,14,4,18,0.00,2,,53
2012-9-12,83,72,61,65,62,59,94,73,47,30.27,30.23,30.20,10,10,9,13,6,,0.00,2,,45
2012-9-13,78,72,65,72,69,63,94,85,70,30.24,30.21,30.17,10,10,6,13,7,,0.03,6,Rain,27
2012-9-14,84,76,67,72,69,66,100,79,59,30.18,30.14,30.09,10,10,5,12,7,,0.01,3,Rain,44
2012-9-15,86,76,67,70,68,62,100,91,45,30.16,30.11,30.07,10,6,2,8,1,,0.00,0,Rain,84
2012-9-16,87,74,62,72,67,63,100,91,53,30.12,30.08,30.01,10,6,1,9,1,,0.00,1,Rain,113
2012-9-17,86,76,67,73,71,68,100,80,55,30.06,30.02,29.91,10,4,1,14,3,29,0.05,2,Rain,125
2012-9-18,77,74,72,74,72,69,94,88,78,29.92,29.84,29.78,10,10,5,9,6,,0.05,5,Rain,187
2012-9-19,84,75,67,70,68,67,98,82,57,30.07,29.97,29.87,10,10,5,8,5,,0.00,1,,315
2012-9-20,82,73,66,70,67,64,100,85,60,30.10,30.07,30.03,10,10,6,9,4,,0.00,6,,27
2012-9-21,84,75,66,69,67,62,100,91,47,30.07,30.05,30.00,10,5,1,8,1,,0.00,2,Rain,39
2012-9-22,89,76,63,70,66,63,100,90,41,30.06,30.02,29.96,10,5,1,7,1,,0.00,0,,334
2012-9-23,85,72,59,70,62,47,100,69,29,30.09,30.04,30.00,10,4,2,14,6,20,0.00,0,,299
2012-9-24,84,68,53,62,55,49,94,69,31,30.15,30.11,30.07,10,8,1,12,2,18,0.00,0,,38
2012-9-25,83,70,59,61,58,54,96,73,38,30.21,30.17,30.13,10,10,7,10,2,,0.00,0,,75
2012-9-26,86,73,60,72,66,59,100,84,58,30.20,30.16,30.12,10,9,2,8,2,,0.00,3,Rain,59
2012-9-27,88,77,66,73,69,67,100,95,50,30.19,30.14,30.09,10,5,2,12,1,,0.00,1,Rain-Thunderstorm,94
2012-9-28,88,74,62,70,66,61,100,86,42,30.12,30.08,30.00,10,8,3,9,1,,0.00,0,Rain,59
2012-9-29,86,75,64,74,68,65,100,93,53,30.03,29.98,29.86,10,6,1,6,1,,0.04,1,Rain,235
2012-9-30,81,75,69,72,71,69,100,95,72,29.89,29.85,29.81,10,9,2,10,1,21,0.23,7,Rain,148